createdAt,value
2022-08-22T18:19:56.139Z,44.08
2022-08-22T18:25:19.731Z,44.10
2022-08-22T18:32:02.724Z,43.97
2022-08-22T18:35:19.124Z,44.06
2022-08-22T18:38:20.643Z,43.93
2022-08-22T18:56:42.585Z,43.82
2022-08-22T19:00:05.570Z,43.67
2022-08-22T19:02:38.674Z,43.77
2022-08-22T19:06:34.117Z,43.68
2022-08-22T19:09:25.217Z,43.63
2022-08-22T19:12:25.672Z,43.50
2022-08-22T19:15:18.059Z,43.57
2022-08-22T19:18:20.275Z,43.47
2022-08-22T19:36:03.831Z,43.25
2022-08-22T20:07:41.295Z,43.11
2022-08-22T20:10:45.950Z,43.10
2022-08-22T20:13:17.319Z,43.07
2022-08-22T20:19:41.651Z,42.94
2022-08-22T20:22:17.996Z,42.99
2022-08-22T20:26:16.225Z,43.09
2022-08-22T20:29:00.025Z,43.04
2022-08-22T20:31:37.292Z,42.94
2022-08-22T20:34:38.075Z,42.93
2022-08-22T20:38:15.935Z,42.89
2022-08-22T20:40:54.801Z,43.00
2022-08-22T20:52:54.390Z,42.76
2022-08-22T20:55:31.901Z,42.85
2022-08-22T21:01:26.106Z,42.73
2022-08-22T21:09:58.211Z,42.81
2022-08-22T22:18:00.056Z,42.49
2022-08-22T22:20:28.879Z,42.51
2022-08-22T22:22:56.370Z,42.47
2022-08-22T22:25:40.059Z,42.50
2022-08-22T22:28:23.779Z,42.39
2022-08-22T22:30:53.692Z,42.38
2022-08-22T22:33:25.016Z,42.34
2022-08-22T22:35:54.777Z,42.49
2022-08-22T22:38:24.903Z,42.35
2022-08-22T22:40:53.005Z,42.48
2022-08-22T22:43:20.488Z,42.38
2022-08-22T22:45:47.815Z,42.38
2022-08-22T22:48:23.775Z,42.43
2022-08-22T22:50:52.594Z,42.31
2022-08-22T22:53:21.383Z,42.39
2022-08-22T22:56:06.278Z,42.28
2022-08-22T22:58:35.799Z,42.33
2022-08-22T23:04:37.397Z,42.03
2022-08-22T23:07:06.135Z,42.18
2022-08-22T23:09:38.768Z,42.18
2022-08-22T23:12:12.697Z,42.18
2022-08-22T23:14:40.106Z,42.15
2022-08-22T23:17:08.248Z,42.01
2022-08-22T23:19:39.622Z,41.98
2022-08-22T23:22:40.786Z,41.97
2022-08-22T23:25:08.336Z,41.98
2022-08-22T23:27:55.754Z,42.08
2022-08-22T23:30:23.580Z,41.86
2022-08-22T23:33:45.601Z,41.98
2022-08-22T23:36:19.138Z,41.82
2022-08-22T23:39:00.510Z,41.95
2022-08-22T23:42:03.531Z,41.76
2022-08-22T23:44:55.537Z,41.90
2022-08-22T23:48:04.651Z,41.87
2022-08-22T23:53:16.205Z,41.75
2022-08-22T23:56:19.400Z,41.77
2022-08-22T23:58:53.680Z,41.72
